sensor_id;sensor_type;location;lat;lon;timestamp;P1;durP1;ratioP1;P2;durP2;ratioP2
22963;SDS011;11648;49.306;6.934;2023-06-14T00:02:16;6.33;;;3.70;;
22963;SDS011;11648;49.306;6.934;2023-06-14T00:04:43;4.97;;;3.80;;
22963;SDS011;11648;49.306;6.934;2023-06-14T00:07:10;5.30;;;3.90;;
22963;SDS011;11648;49.306;6.934;2023-06-14T00:09:40;6.03;;;4.07;;
22963;SDS011;11648;49.306;6.934;2023-06-14T00:12:07;4.93;;;3.60;;
22963;SDS011;11648;49.306;6.934;2023-06-14T00:14:35;5.80;;;4.00;;
22963;SDS011;11648;49.306;6.934;2023-06-14T00:17:02;5.13;;;4.00;;
22963;SDS011;11648;49.306;6.934;2023-06-14T00:19:29;4.67;;;3.50;;
22963;SDS011;11648;49.306;6.934;2023-06-14T00:21:59;7.50;;;3.30;;
22963;SDS011;11648;49.306;6.934;2023-06-14T00:24:26;4.67;;;3.53;;
22963;SDS011;11648;49.306;6.934;2023-06-14T00:26:53;6.03;;;3.60;;
22963;SDS011;11648;49.306;6.934;2023-06-14T00:29:21;6.33;;;3.97;;
22963;SDS011;11648;49.306;6.934;2023-06-14T00:31:48;5.67;;;3.93;;
22963;SDS011;11648;49.306;6.934;2023-06-14T00:34:15;8.77;;;3.80;;
22963;SDS011;11648;49.306;6.934;2023-06-14T00:36:42;5.30;;;3.50;;
22963;SDS011;11648;49.306;6.934;2023-06-14T00:39:08;5.67;;;3.87;;
22963;SDS011;11648;49.306;6.934;2023-06-14T00:41:36;6.27;;;3.93;;
22963;SDS011;11648;49.306;6.934;2023-06-14T00:44:04;5.73;;;3.80;;
22963;SDS011;11648;49.306;6.934;2023-06-14T00:46:31;8.03;;;4.00;;
22963;SDS011;11648;49.306;6.934;2023-06-14T00:48:58;5.00;;;3.80;;
22963;SDS011;11648;49.306;6.934;2023-06-14T00:51:27;6.30;;;3.80;;
22963;SDS011;11648;49.306;6.934;2023-06-14T00:53:54;6.80;;;3.93;;
22963;SDS011;11648;49.306;6.934;2023-06-14T00:56:21;4.63;;;3.50;;
22963;SDS011;11648;49.306;6.934;2023-06-14T00:58:50;4.77;;;3.80;;
22963;SDS011;11648;49.306;6.934;2023-06-14T01:01:17;8.70;;;3.70;;
22963;SDS011;11648;49.306;6.934;2023-06-14T01:03:44;4.90;;;3.70;;
22963;SDS011;11648;49.306;6.934;2023-06-14T01:08:50;5.63;;;3.63;;
22963;SDS011;11648;49.306;6.934;2023-06-14T01:11:25;5.13;;;3.63;;
22963;SDS011;11648;49.306;6.934;2023-06-14T01:13:57;6.63;;;3.90;;
22963;SDS011;11648;49.306;6.934;2023-06-14T01:16:28;8.50;;;3.67;;
22963;SDS011;11648;49.306;6.934;2023-06-14T01:18:56;5.37;;;3.60;;
22963;SDS011;11648;49.306;6.934;2023-06-14T01:21:24;5.33;;;4.10;;
22963;SDS011;11648;49.306;6.934;2023-06-14T01:23:52;5.77;;;3.77;;
22963;SDS011;11648;49.306;6.934;2023-06-14T01:26:23;6.93;;;3.50;;
22963;SDS011;11648;49.306;6.934;2023-06-14T01:28:50;5.77;;;4.27;;
22963;SDS011;11648;49.306;6.934;2023-06-14T01:31:22;6.53;;;3.97;;
22963;SDS011;11648;49.306;6.934;2023-06-14T01:33:50;6.40;;;3.97;;
22963;SDS011;11648;49.306;6.934;2023-06-14T01:36:21;6.60;;;3.70;;
22963;SDS011;11648;49.306;6.934;2023-06-14T01:38:50;5.80;;;3.53;;
22963;SDS011;11648;49.306;6.934;2023-06-14T01:41:19;4.67;;;3.50;;
22963;SDS011;11648;49.306;6.934;2023-06-14T01:43:48;5.40;;;3.70;;
22963;SDS011;11648;49.306;6.934;2023-06-14T01:46:15;9.03;;;4.00;;
22963;SDS011;11648;49.306;6.934;2023-06-14T01:48:42;4.70;;;3.73;;
22963;SDS011;11648;49.306;6.934;2023-06-14T01:51:09;4.83;;;3.57;;
22963;SDS011;11648;49.306;6.934;2023-06-14T01:53:36;5.03;;;3.93;;
22963;SDS011;11648;49.306;6.934;2023-06-14T01:56:03;5.30;;;3.73;;
22963;SDS011;11648;49.306;6.934;2023-06-14T01:58:30;6.73;;;3.87;;
22963;SDS011;11648;49.306;6.934;2023-06-14T02:00:57;9.83;;;3.80;;
22963;SDS011;11648;49.306;6.934;2023-06-14T02:03:27;5.10;;;4.20;;
22963;SDS011;11648;49.306;6.934;2023-06-14T02:05:54;6.63;;;3.77;;
22963;SDS011;11648;49.306;6.934;2023-06-14T02:08:22;7.67;;;4.03;;
22963;SDS011;11648;49.306;6.934;2023-06-14T02:10:49;7.17;;;3.80;;
22963;SDS011;11648;49.306;6.934;2023-06-14T02:13:16;6.10;;;4.43;;
22963;SDS011;11648;49.306;6.934;2023-06-14T02:15:43;6.17;;;4.07;;
22963;SDS011;11648;49.306;6.934;2023-06-14T02:18:11;7.07;;;3.70;;
22963;SDS011;11648;49.306;6.934;2023-06-14T02:20:38;6.47;;;4.00;;
22963;SDS011;11648;49.306;6.934;2023-06-14T02:23:05;4.97;;;3.95;;
22963;SDS011;11648;49.306;6.934;2023-06-14T02:25:34;8.07;;;4.27;;
22963;SDS011;11648;49.306;6.934;2023-06-14T02:28:01;5.10;;;3.90;;
22963;SDS011;11648;49.306;6.934;2023-06-14T02:30:28;5.77;;;4.10;;
22963;SDS011;11648;49.306;6.934;2023-06-14T02:32:55;8.00;;;4.23;;
22963;SDS011;11648;49.306;6.934;2023-06-14T02:35:23;5.90;;;3.90;;
22963;SDS011;11648;49.306;6.934;2023-06-14T02:37:52;5.17;;;3.70;;
22963;SDS011;11648;49.306;6.934;2023-06-14T02:40:22;5.43;;;3.97;;
22963;SDS011;11648;49.306;6.934;2023-06-14T02:42:49;7.33;;;3.90;;
22963;SDS011;11648;49.306;6.934;2023-06-14T02:45:16;5.87;;;4.10;;
22963;SDS011;11648;49.306;6.934;2023-06-14T02:47:43;4.97;;;4.10;;
22963;SDS011;11648;49.306;6.934;2023-06-14T02:50:11;5.70;;;4.00;;
22963;SDS011;11648;49.306;6.934;2023-06-14T02:52:38;6.83;;;4.17;;
22963;SDS011;11648;49.306;6.934;2023-06-14T02:55:08;8.17;;;4.27;;
22963;SDS011;11648;49.306;6.934;2023-06-14T02:57:36;7.23;;;4.30;;
22963;SDS011;11648;49.306;6.934;2023-06-14T03:00:04;6.33;;;3.77;;
22963;SDS011;11648;49.306;6.934;2023-06-14T03:02:34;6.57;;;4.17;;
22963;SDS011;11648;49.306;6.934;2023-06-14T03:05:01;7.17;;;4.00;;
22963;SDS011;11648;49.306;6.934;2023-06-14T03:07:30;6.97;;;4.10;;
22963;SDS011;11648;49.306;6.934;2023-06-14T03:09:58;5.60;;;4.37;;
22963;SDS011;11648;49.306;6.934;2023-06-14T03:12:25;5.50;;;4.30;;
22963;SDS011;11648;49.306;6.934;2023-06-14T03:14:53;6.27;;;3.57;;
22963;SDS011;11648;49.306;6.934;2023-06-14T03:17:24;6.57;;;4.20;;
22963;SDS011;11648;49.306;6.934;2023-06-14T03:19:56;6.13;;;4.27;;
22963;SDS011;11648;49.306;6.934;2023-06-14T03:22:24;6.47;;;4.33;;
22963;SDS011;11648;49.306;6.934;2023-06-14T03:24:52;6.30;;;4.10;;
22963;SDS011;11648;49.306;6.934;2023-06-14T03:27:20;5.97;;;4.10;;
22963;SDS011;11648;49.306;6.934;2023-06-14T03:29:47;6.80;;;4.20;;
22963;SDS011;11648;49.306;6.934;2023-06-14T03:32:15;5.97;;;4.47;;
22963;SDS011;11648;49.306;6.934;2023-06-14T03:34:43;8.00;;;4.30;;
22963;SDS011;11648;49.306;6.934;2023-06-14T03:37:17;6.47;;;4.00;;
22963;SDS011;11648;49.306;6.934;2023-06-14T03:39:45;5.50;;;4.37;;
22963;SDS011;11648;49.306;6.934;2023-06-14T03:42:18;5.13;;;4.30;;
22963;SDS011;11648;49.306;6.934;2023-06-14T03:44:46;6.73;;;3.97;;
22963;SDS011;11648;49.306;6.934;2023-06-14T03:47:14;5.40;;;3.70;;
22963;SDS011;11648;49.306;6.934;2023-06-14T03:49:41;4.97;;;4.27;;
22963;SDS011;11648;49.306;6.934;2023-06-14T03:52:08;6.03;;;3.93;;
22963;SDS011;11648;49.306;6.934;2023-06-14T03:54:37;5.00;;;4.07;;
22963;SDS011;11648;49.306;6.934;2023-06-14T03:57:17;6.30;;;4.10;;
22963;SDS011;11648;49.306;6.934;2023-06-14T03:59:47;5.37;;;3.87;;
22963;SDS011;11648;49.306;6.934;2023-06-14T04:02:14;7.13;;;3.90;;
22963;SDS011;11648;49.306;6.934;2023-06-14T04:04:43;4.53;;;4.00;;
22963;SDS011;11648;49.306;6.934;2023-06-14T04:07:12;7.20;;;4.33;;
22963;SDS011;11648;49.306;6.934;2023-06-14T04:09:39;5.43;;;4.03;;
22963;SDS011;11648;49.306;6.934;2023-06-14T04:12:06;5.93;;;4.47;;
22963;SDS011;11648;49.306;6.934;2023-06-14T04:14:35;5.97;;;4.10;;
22963;SDS011;11648;49.306;6.934;2023-06-14T04:17:02;4.70;;;3.70;;
22963;SDS011;11648;49.306;6.934;2023-06-14T04:19:29;6.17;;;4.30;;
22963;SDS011;11648;49.306;6.934;2023-06-14T04:21:57;5.53;;;4.23;;
22963;SDS011;11648;49.306;6.934;2023-06-14T04:24:25;5.77;;;4.33;;
22963;SDS011;11648;49.306;6.934;2023-06-14T04:26:58;7.60;;;4.10;;
22963;SDS011;11648;49.306;6.934;2023-06-14T04:29:28;6.23;;;4.20;;
22963;SDS011;11648;49.306;6.934;2023-06-14T04:32:00;6.37;;;4.20;;
22963;SDS011;11648;49.306;6.934;2023-06-14T04:34:28;6.50;;;3.70;;
22963;SDS011;11648;49.306;6.934;2023-06-14T04:36:56;7.10;;;4.13;;
22963;SDS011;11648;49.306;6.934;2023-06-14T04:39:30;5.17;;;3.93;;
22963;SDS011;11648;49.306;6.934;2023-06-14T04:41:58;6.13;;;4.00;;
22963;SDS011;11648;49.306;6.934;2023-06-14T04:44:27;5.47;;;3.80;;
22963;SDS011;11648;49.306;6.934;2023-06-14T04:47:01;5.10;;;4.00;;
22963;SDS011;11648;49.306;6.934;2023-06-14T04:49:27;9.63;;;4.17;;
22963;SDS011;11648;49.306;6.934;2023-06-14T04:51:58;5.37;;;4.30;;
22963;SDS011;11648;49.306;6.934;2023-06-14T04:54:28;5.73;;;4.30;;
22963;SDS011;11648;49.306;6.934;2023-06-14T04:56:58;5.80;;;4.10;;
22963;SDS011;11648;49.306;6.934;2023-06-14T04:59:26;5.70;;;4.40;;
22963;SDS011;11648;49.306;6.934;2023-06-14T05:01:53;5.60;;;4.20;;
22963;SDS011;11648;49.306;6.934;2023-06-14T05:04:21;5.40;;;4.00;;
22963;SDS011;11648;49.306;6.934;2023-06-14T05:06:49;6.13;;;3.97;;
22963;SDS011;11648;49.306;6.934;2023-06-14T05:09:16;6.53;;;3.90;;
22963;SDS011;11648;49.306;6.934;2023-06-14T05:11:43;5.37;;;4.10;;
22963;SDS011;11648;49.306;6.934;2023-06-14T05:14:11;6.47;;;3.83;;
22963;SDS011;11648;49.306;6.934;2023-06-14T05:16:41;6.40;;;3.97;;
22963;SDS011;11648;49.306;6.934;2023-06-14T05:19:07;6.03;;;3.87;;
22963;SDS011;11648;49.306;6.934;2023-06-14T05:21:34;8.60;;;4.27;;
22963;SDS011;11648;49.306;6.934;2023-06-14T05:24:08;4.90;;;3.90;;
22963;SDS011;11648;49.306;6.934;2023-06-14T05:26:35;5.80;;;4.23;;
22963;SDS011;11648;49.306;6.934;2023-06-14T05:29:02;5.17;;;3.90;;
22963;SDS011;11648;49.306;6.934;2023-06-14T05:31:29;6.13;;;4.13;;
22963;SDS011;11648;49.306;6.934;2023-06-14T05:33:56;9.07;;;3.77;;
22963;SDS011;11648;49.306;6.934;2023-06-14T05:36:23;5.77;;;4.20;;
22963;SDS011;11648;49.306;6.934;2023-06-14T05:38:50;5.33;;;3.90;;
22963;SDS011;11648;49.306;6.934;2023-06-14T05:41:24;6.53;;;3.60;;
22963;SDS011;11648;49.306;6.934;2023-06-14T05:43:53;5.73;;;3.97;;
22963;SDS011;11648;49.306;6.934;2023-06-14T05:46:20;5.33;;;3.53;;
22963;SDS011;11648;49.306;6.934;2023-06-14T05:48:52;6.23;;;3.80;;
22963;SDS011;11648;49.306;6.934;2023-06-14T05:51:19;5.17;;;3.53;;
22963;SDS011;11648;49.306;6.934;2023-06-14T05:53:49;6.33;;;3.70;;
22963;SDS011;11648;49.306;6.934;2023-06-14T05:56:17;5.13;;;3.70;;
22963;SDS011;11648;49.306;6.934;2023-06-14T05:58:44;5.90;;;3.90;;
22963;SDS011;11648;49.306;6.934;2023-06-14T06:01:11;5.10;;;3.70;;
22963;SDS011;11648;49.306;6.934;2023-06-14T06:03:39;4.43;;;3.63;;
22963;SDS011;11648;49.306;6.934;2023-06-14T06:06:06;6.57;;;3.90;;
22963;SDS011;11648;49.306;6.934;2023-06-14T06:08:34;5.97;;;3.77;;
22963;SDS011;11648;49.306;6.934;2023-06-14T06:11:01;6.77;;;4.33;;
22963;SDS011;11648;49.306;6.934;2023-06-14T06:13:28;6.30;;;4.00;;
22963;SDS011;11648;49.306;6.934;2023-06-14T06:15:55;6.10;;;3.57;;
22963;SDS011;11648;49.306;6.934;2023-06-14T06:18:22;7.87;;;3.70;;
22963;SDS011;11648;49.306;6.934;2023-06-14T06:20:49;6.17;;;3.63;;
22963;SDS011;11648;49.306;6.934;2023-06-14T06:23:16;7.90;;;3.80;;
22963;SDS011;11648;49.306;6.934;2023-06-14T06:25:43;5.97;;;3.67;;
22963;SDS011;11648;49.306;6.934;2023-06-14T06:28:10;5.97;;;3.90;;
22963;SDS011;11648;49.306;6.934;2023-06-14T06:30:38;5.83;;;4.10;;
22963;SDS011;11648;49.306;6.934;2023-06-14T06:33:05;6.60;;;4.43;;
22963;SDS011;11648;49.306;6.934;2023-06-14T06:35:32;5.73;;;3.93;;
22963;SDS011;11648;49.306;6.934;2023-06-14T06:37:59;7.53;;;3.63;;
22963;SDS011;11648;49.306;6.934;2023-06-14T06:40:27;7.30;;;3.83;;
22963;SDS011;11648;49.306;6.934;2023-06-14T06:42:54;7.80;;;4.13;;
22963;SDS011;11648;49.306;6.934;2023-06-14T06:45:21;5.10;;;3.80;;
22963;SDS011;11648;49.306;6.934;2023-06-14T06:47:51;7.47;;;4.20;;
22963;SDS011;11648;49.306;6.934;2023-06-14T06:50:18;6.23;;;4.13;;
22963;SDS011;11648;49.306;6.934;2023-06-14T06:52:46;8.10;;;4.00;;
22963;SDS011;11648;49.306;6.934;2023-06-14T06:55:13;6.20;;;4.47;;
22963;SDS011;11648;49.306;6.934;2023-06-14T06:57:41;6.80;;;4.43;;
22963;SDS011;11648;49.306;6.934;2023-06-14T07:00:08;8.77;;;4.87;;
22963;SDS011;11648;49.306;6.934;2023-06-14T07:02:36;5.87;;;4.37;;
22963;SDS011;11648;49.306;6.934;2023-06-14T07:05:03;10.13;;;4.03;;
22963;SDS011;11648;49.306;6.934;2023-06-14T07:07:31;6.77;;;4.00;;
22963;SDS011;11648;49.306;6.934;2023-06-14T07:09:58;8.37;;;4.47;;
22963;SDS011;11648;49.306;6.934;2023-06-14T07:12:26;9.97;;;4.27;;
22963;SDS011;11648;49.306;6.934;2023-06-14T07:14:53;7.47;;;3.80;;
22963;SDS011;11648;49.306;6.934;2023-06-14T07:17:20;4.90;;;3.57;;
22963;SDS011;11648;49.306;6.934;2023-06-14T07:19:46;7.27;;;4.03;;
22963;SDS011;11648;49.306;6.934;2023-06-14T07:22:15;8.30;;;3.73;;
22963;SDS011;11648;49.306;6.934;2023-06-14T07:24:41;7.17;;;3.77;;
22963;SDS011;11648;49.306;6.934;2023-06-14T07:27:09;6.43;;;3.47;;
22963;SDS011;11648;49.306;6.934;2023-06-14T07:29:38;7.63;;;4.20;;
22963;SDS011;11648;49.306;6.934;2023-06-14T07:32:05;8.33;;;4.10;;
22963;SDS011;11648;49.306;6.934;2023-06-14T07:34:32;6.63;;;4.17;;
22963;SDS011;11648;49.306;6.934;2023-06-14T07:36:59;8.80;;;4.07;;
22963;SDS011;11648;49.306;6.934;2023-06-14T07:39:26;5.83;;;3.93;;
22963;SDS011;11648;49.306;6.934;2023-06-14T07:41:53;6.63;;;3.67;;
22963;SDS011;11648;49.306;6.934;2023-06-14T07:44:19;8.97;;;3.60;;
22963;SDS011;11648;49.306;6.934;2023-06-14T07:46:46;5.70;;;3.80;;
22963;SDS011;11648;49.306;6.934;2023-06-14T07:49:15;7.00;;;3.67;;
22963;SDS011;11648;49.306;6.934;2023-06-14T07:51:42;5.03;;;3.80;;
22963;SDS011;11648;49.306;6.934;2023-06-14T07:54:10;7.27;;;3.90;;
22963;SDS011;11648;49.306;6.934;2023-06-14T07:56:37;5.77;;;3.80;;
22963;SDS011;11648;49.306;6.934;2023-06-14T07:59:04;5.00;;;3.80;;
22963;SDS011;11648;49.306;6.934;2023-06-14T08:01:32;7.80;;;4.17;;
22963;SDS011;11648;49.306;6.934;2023-06-14T08:03:59;5.93;;;3.73;;
22963;SDS011;11648;49.306;6.934;2023-06-14T08:06:26;7.30;;;4.00;;
22963;SDS011;11648;49.306;6.934;2023-06-14T08:08:56;7.37;;;3.60;;
22963;SDS011;11648;49.306;6.934;2023-06-14T08:11:23;9.45;;;3.42;;
22963;SDS011;11648;49.306;6.934;2023-06-14T08:13:50;6.17;;;3.63;;
22963;SDS011;11648;49.306;6.934;2023-06-14T08:16:17;9.27;;;5.07;;
22963;SDS011;11648;49.306;6.934;2023-06-14T08:18:44;6.47;;;3.90;;
22963;SDS011;11648;49.306;6.934;2023-06-14T08:21:11;5.63;;;3.80;;
22963;SDS011;11648;49.306;6.934;2023-06-14T08:23:38;9.47;;;3.70;;
22963;SDS011;11648;49.306;6.934;2023-06-14T08:26:04;5.80;;;3.70;;
22963;SDS011;11648;49.306;6.934;2023-06-14T08:28:31;6.33;;;3.97;;
22963;SDS011;11648;49.306;6.934;2023-06-14T08:30:58;5.73;;;3.90;;
22963;SDS011;11648;49.306;6.934;2023-06-14T08:33:24;6.83;;;3.97;;
22963;SDS011;11648;49.306;6.934;2023-06-14T08:35:51;5.00;;;3.90;;
22963;SDS011;11648;49.306;6.934;2023-06-14T08:38:18;6.73;;;3.80;;
22963;SDS011;11648;49.306;6.934;2023-06-14T08:40:45;5.03;;;3.60;;
22963;SDS011;11648;49.306;6.934;2023-06-14T08:43:16;7.55;;;4.00;;
22963;SDS011;11648;49.306;6.934;2023-06-14T08:45:43;6.47;;;3.80;;
22963;SDS011;11648;49.306;6.934;2023-06-14T08:48:12;5.35;;;3.95;;
22963;SDS011;11648;49.306;6.934;2023-06-14T08:50:43;6.68;;;3.95;;
22963;SDS011;11648;49.306;6.934;2023-06-14T08:53:13;4.75;;;3.35;;
22963;SDS011;11648;49.306;6.934;2023-06-14T08:55:46;8.77;;;4.00;;
22963;SDS011;11648;49.306;6.934;2023-06-14T08:58:14;4.78;;;3.80;;
22963;SDS011;11648;49.306;6.934;2023-06-14T09:00:41;5.85;;;3.50;;
22963;SDS011;11648;49.306;6.934;2023-06-14T09:03:09;7.35;;;3.55;;
22963;SDS011;11648;49.306;6.934;2023-06-14T09:05:40;6.00;;;3.92;;
22963;SDS011;11648;49.306;6.934;2023-06-14T09:08:07;6.22;;;4.32;;
22963;SDS011;11648;49.306;6.934;2023-06-14T09:10:34;6.57;;;3.45;;
22963;SDS011;11648;49.306;6.934;2023-06-14T09:13:04;7.63;;;3.67;;
22963;SDS011;11648;49.306;6.934;2023-06-14T09:15:31;7.00;;;3.90;;
22963;SDS011;11648;49.306;6.934;2023-06-14T09:18:00;6.22;;;3.92;;
22963;SDS011;11648;49.306;6.934;2023-06-14T09:20:29;7.53;;;3.60;;
22963;SDS011;11648;49.306;6.934;2023-06-14T09:22:57;5.03;;;3.30;;
22963;SDS011;11648;49.306;6.934;2023-06-14T09:25:24;9.98;;;3.55;;
22963;SDS011;11648;49.306;6.934;2023-06-14T09:28:08;6.60;;;3.70;;
22963;SDS011;11648;49.306;6.934;2023-06-14T09:30:36;5.97;;;3.50;;
22963;SDS011;11648;49.306;6.934;2023-06-14T09:33:07;4.80;;;3.70;;
22963;SDS011;11648;49.306;6.934;2023-06-14T09:35:34;5.88;;;3.58;;
22963;SDS011;11648;49.306;6.934;2023-06-14T09:38:02;5.60;;;3.47;;
22963;SDS011;11648;49.306;6.934;2023-06-14T09:40:33;9.75;;;3.97;;
22963;SDS011;11648;49.306;6.934;2023-06-14T09:43:03;9.23;;;3.60;;
22963;SDS011;11648;49.306;6.934;2023-06-14T09:45:33;5.30;;;3.65;;
22963;SDS011;11648;49.306;6.934;2023-06-14T09:47:59;7.35;;;3.72;;
22963;SDS011;11648;49.306;6.934;2023-06-14T09:50:34;5.43;;;3.33;;
22963;SDS011;11648;49.306;6.934;2023-06-14T09:53:06;12.45;;;3.97;;
22963;SDS011;11648;49.306;6.934;2023-06-14T09:55:34;4.90;;;3.58;;
22963;SDS011;11648;49.306;6.934;2023-06-14T09:58:06;7.93;;;4.03;;
22963;SDS011;11648;49.306;6.934;2023-06-14T10:00:36;6.53;;;3.80;;
22963;SDS011;11648;49.306;6.934;2023-06-14T10:03:11;8.25;;;3.90;;
22963;SDS011;11648;49.306;6.934;2023-06-14T10:05:47;7.72;;;3.70;;
22963;SDS011;11648;49.306;6.934;2023-06-14T10:08:18;5.93;;;3.78;;
22963;SDS011;11648;49.306;6.934;2023-06-14T10:10:48;7.57;;;3.67;;
22963;SDS011;11648;49.306;6.934;2023-06-14T10:13:15;6.32;;;3.83;;
22963;SDS011;11648;49.306;6.934;2023-06-14T10:21:05;4.40;;;3.53;;
22963;SDS011;11648;49.306;6.934;2023-06-14T10:23:43;5.97;;;3.38;;
22963;SDS011;11648;49.306;6.934;2023-06-14T10:26:19;5.15;;;3.55;;
22963;SDS011;11648;49.306;6.934;2023-06-14T10:34:26;7.32;;;3.70;;
22963;SDS011;11648;49.306;6.934;2023-06-14T10:37:12;6.32;;;3.60;;
22963;SDS011;11648;49.306;6.934;2023-06-14T10:39:40;8.75;;;3.80;;
22963;SDS011;11648;49.306;6.934;2023-06-14T10:42:09;8.02;;;3.75;;
22963;SDS011;11648;49.306;6.934;2023-06-14T10:47:06;7.60;;;3.70;;
22963;SDS011;11648;49.306;6.934;2023-06-14T10:49:43;6.80;;;3.63;;
22963;SDS011;11648;49.306;6.934;2023-06-14T10:52:12;4.43;;;3.30;;
22963;SDS011;11648;49.306;6.934;2023-06-14T10:57:32;6.30;;;3.50;;
22963;SDS011;11648;49.306;6.934;2023-06-14T11:00:16;4.28;;;3.33;;
22963;SDS011;11648;49.306;6.934;2023-06-14T11:05:41;6.88;;;3.58;;
22963;SDS011;11648;49.306;6.934;2023-06-14T11:11:05;7.80;;;3.50;;
22963;SDS011;11648;49.306;6.934;2023-06-14T11:13:34;6.53;;;3.60;;
22963;SDS011;11648;49.306;6.934;2023-06-14T11:16:10;6.70;;;3.20;;
22963;SDS011;11648;49.306;6.934;2023-06-14T11:18:38;6.68;;;3.40;;
22963;SDS011;11648;49.306;6.934;2023-06-14T11:21:05;6.53;;;3.30;;
22963;SDS011;11648;49.306;6.934;2023-06-14T11:23:32;4.85;;;3.00;;
22963;SDS011;11648;49.306;6.934;2023-06-14T11:25:59;5.72;;;3.35;;
22963;SDS011;11648;49.306;6.934;2023-06-14T11:28:38;7.18;;;3.47;;
22963;SDS011;11648;49.306;6.934;2023-06-14T11:31:07;4.90;;;3.33;;
22963;SDS011;11648;49.306;6.934;2023-06-14T11:33:34;7.45;;;3.17;;
22963;SDS011;11648;49.306;6.934;2023-06-14T11:36:04;4.82;;;2.83;;
22963;SDS011;11648;49.306;6.934;2023-06-14T11:38:35;4.40;;;2.92;;
22963;SDS011;11648;49.306;6.934;2023-06-14T11:41:03;5.45;;;2.88;;
22963;SDS011;11648;49.306;6.934;2023-06-14T11:43:30;4.13;;;3.30;;
22963;SDS011;11648;49.306;6.934;2023-06-14T11:45:59;6.30;;;3.20;;
22963;SDS011;11648;49.306;6.934;2023-06-14T11:48:40;4.25;;;3.50;;
22963;SDS011;11648;49.306;6.934;2023-06-14T11:51:08;6.35;;;3.13;;
22963;SDS011;11648;49.306;6.934;2023-06-14T11:53:35;4.18;;;3.03;;
22963;SDS011;11648;49.306;6.934;2023-06-14T11:56:02;8.57;;;3.40;;
22963;SDS011;11648;49.306;6.934;2023-06-14T11:58:30;8.63;;;3.17;;
22963;SDS011;11648;49.306;6.934;2023-06-14T12:00:57;4.50;;;2.97;;
22963;SDS011;11648;49.306;6.934;2023-06-14T12:03:24;5.78;;;3.28;;
22963;SDS011;11648;49.306;6.934;2023-06-14T12:06:01;5.20;;;2.78;;
22963;SDS011;11648;49.306;6.934;2023-06-14T12:08:37;6.10;;;3.50;;
22963;SDS011;11648;49.306;6.934;2023-06-14T12:11:13;7.57;;;3.22;;
22963;SDS011;11648;49.306;6.934;2023-06-14T12:13:41;3.33;;;2.78;;
22963;SDS011;11648;49.306;6.934;2023-06-14T12:16:09;4.72;;;3.22;;
22963;SDS011;11648;49.306;6.934;2023-06-14T12:18:38;6.15;;;3.17;;
22963;SDS011;11648;49.306;6.934;2023-06-14T12:21:07;5.22;;;3.20;;
22963;SDS011;11648;49.306;6.934;2023-06-14T12:23:41;4.57;;;3.00;;
22963;SDS011;11648;49.306;6.934;2023-06-14T12:26:16;3.70;;;2.95;;
22963;SDS011;11648;49.306;6.934;2023-06-14T12:28:44;4.10;;;3.20;;
22963;SDS011;11648;49.306;6.934;2023-06-14T12:31:12;6.55;;;2.95;;
22963;SDS011;11648;49.306;6.934;2023-06-14T12:33:40;4.10;;;2.92;;
22963;SDS011;11648;49.306;6.934;2023-06-14T12:36:08;6.43;;;3.42;;
22963;SDS011;11648;49.306;6.934;2023-06-14T12:38:37;6.97;;;3.15;;
22963;SDS011;11648;49.306;6.934;2023-06-14T12:41:04;4.78;;;3.05;;
22963;SDS011;11648;49.306;6.934;2023-06-14T12:43:31;4.55;;;3.17;;
22963;SDS011;11648;49.306;6.934;2023-06-14T12:45:58;4.55;;;3.17;;
22963;SDS011;11648;49.306;6.934;2023-06-14T12:48:25;4.60;;;2.90;;
22963;SDS011;11648;49.306;6.934;2023-06-14T12:50:53;8.68;;;3.03;;
22963;SDS011;11648;49.306;6.934;2023-06-14T12:53:20;9.18;;;3.55;;
22963;SDS011;11648;49.306;6.934;2023-06-14T12:55:47;4.90;;;2.90;;
22963;SDS011;11648;49.306;6.934;2023-06-14T12:58:14;4.47;;;2.90;;
22963;SDS011;11648;49.306;6.934;2023-06-14T13:00:41;4.65;;;2.75;;
22963;SDS011;11648;49.306;6.934;2023-06-14T13:03:07;4.13;;;2.70;;
22963;SDS011;11648;49.306;6.934;2023-06-14T13:05:34;6.10;;;2.80;;
22963;SDS011;11648;49.306;6.934;2023-06-14T13:08:01;5.60;;;2.95;;
22963;SDS011;11648;49.306;6.934;2023-06-14T13:10:43;4.65;;;2.78;;
22963;SDS011;11648;49.306;6.934;2023-06-14T13:13:10;6.18;;;2.95;;
22963;SDS011;11648;49.306;6.934;2023-06-14T13:15:38;6.15;;;2.70;;
22963;SDS011;11648;49.306;6.934;2023-06-14T13:18:06;6.45;;;2.67;;
22963;SDS011;11648;49.306;6.934;2023-06-14T13:20:33;7.65;;;3.00;;
22963;SDS011;11648;49.306;6.934;2023-06-14T13:23:00;5.18;;;2.53;;
22963;SDS011;11648;49.306;6.934;2023-06-14T13:25:28;6.32;;;2.85;;
22963;SDS011;11648;49.306;6.934;2023-06-14T13:27:58;3.60;;;2.35;;
22963;SDS011;11648;49.306;6.934;2023-06-14T13:30:25;4.68;;;2.55;;
22963;SDS011;11648;49.306;6.934;2023-06-14T13:32:51;4.63;;;2.83;;
22963;SDS011;11648;49.306;6.934;2023-06-14T13:35:19;4.20;;;2.78;;
22963;SDS011;11648;49.306;6.934;2023-06-14T13:37:46;4.18;;;2.70;;
22963;SDS011;11648;49.306;6.934;2023-06-14T13:40:13;3.58;;;2.58;;
22963;SDS011;11648;49.306;6.934;2023-06-14T13:42:40;3.88;;;2.53;;
22963;SDS011;11648;49.306;6.934;2023-06-14T13:45:08;5.20;;;2.50;;
22963;SDS011;11648;49.306;6.934;2023-06-14T13:47:37;4.68;;;2.47;;
22963;SDS011;11648;49.306;6.934;2023-06-14T13:50:04;4.57;;;2.42;;
22963;SDS011;11648;49.306;6.934;2023-06-14T13:52:32;3.35;;;2.45;;
22963;SDS011;11648;49.306;6.934;2023-06-14T13:54:59;5.47;;;2.58;;
22963;SDS011;11648;49.306;6.934;2023-06-14T13:57:26;3.25;;;2.20;;
22963;SDS011;11648;49.306;6.934;2023-06-14T13:59:53;7.22;;;2.63;;
22963;SDS011;11648;49.306;6.934;2023-06-14T14:02:21;5.28;;;2.55;;
22963;SDS011;11648;49.306;6.934;2023-06-14T14:04:48;4.10;;;2.30;;
22963;SDS011;11648;49.306;6.934;2023-06-14T14:07:19;4.72;;;2.45;;
22963;SDS011;11648;49.306;6.934;2023-06-14T14:09:47;5.60;;;2.30;;
22963;SDS011;11648;49.306;6.934;2023-06-14T14:12:14;4.43;;;2.25;;
22963;SDS011;11648;49.306;6.934;2023-06-14T14:14:41;4.95;;;2.30;;
22963;SDS011;11648;49.306;6.934;2023-06-14T14:17:07;5.60;;;2.33;;
22963;SDS011;11648;49.306;6.934;2023-06-14T14:19:34;5.95;;;2.28;;
22963;SDS011;11648;49.306;6.934;2023-06-14T14:22:01;4.90;;;2.70;;
22963;SDS011;11648;49.306;6.934;2023-06-14T14:24:28;5.05;;;2.30;;
22963;SDS011;11648;49.306;6.934;2023-06-14T14:26:55;5.15;;;2.55;;
22963;SDS011;11648;49.306;6.934;2023-06-14T14:29:26;5.22;;;2.60;;
22963;SDS011;11648;49.306;6.934;2023-06-14T14:31:55;6.25;;;2.60;;
22963;SDS011;11648;49.306;6.934;2023-06-14T14:34:24;5.28;;;2.65;;
22963;SDS011;11648;49.306;6.934;2023-06-14T14:36:51;4.75;;;2.40;;
22963;SDS011;11648;49.306;6.934;2023-06-14T14:39:18;3.88;;;2.25;;
22963;SDS011;11648;49.306;6.934;2023-06-14T14:41:44;4.95;;;2.50;;
22963;SDS011;11648;49.306;6.934;2023-06-14T14:44:11;4.47;;;2.60;;
22963;SDS011;11648;49.306;6.934;2023-06-14T14:46:38;4.18;;;2.22;;
22963;SDS011;11648;49.306;6.934;2023-06-14T14:49:05;4.03;;;2.38;;
22963;SDS011;11648;49.306;6.934;2023-06-14T14:51:32;3.83;;;2.55;;
22963;SDS011;11648;49.306;6.934;2023-06-14T14:53:58;3.28;;;2.20;;
22963;SDS011;11648;49.306;6.934;2023-06-14T14:56:25;6.15;;;2.30;;
22963;SDS011;11648;49.306;6.934;2023-06-14T14:58:52;4.55;;;2.30;;
22963;SDS011;11648;49.306;6.934;2023-06-14T15:01:19;5.63;;;2.35;;
22963;SDS011;11648;49.306;6.934;2023-06-14T15:03:46;3.67;;;2.35;;
22963;SDS011;11648;49.306;6.934;2023-06-14T15:06:25;3.70;;;2.30;;
22963;SDS011;11648;49.306;6.934;2023-06-14T15:08:51;5.15;;;2.05;;
22963;SDS011;11648;49.306;6.934;2023-06-14T15:11:18;4.75;;;2.45;;
22963;SDS011;11648;49.306;6.934;2023-06-14T15:13:46;5.32;;;2.30;;
22963;SDS011;11648;49.306;6.934;2023-06-14T15:16:13;2.97;;;2.08;;
22963;SDS011;11648;49.306;6.934;2023-06-14T15:18:40;3.83;;;2.13;;
22963;SDS011;11648;49.306;6.934;2023-06-14T15:21:07;3.58;;;2.10;;